ENNM

Namsos Høknesøra Airport

Namsos, Norway
METAR ENNM 230750Z 08015KT 1000 SHSN VV009 M04/M05 Q1027
Observed Flight Rules
Feb-23 @ 07:50 UTC (39 minutes ago) Instrument Flight Rules
Wind Visibility Clouds Conditions
80° at 15 knots 998 meters
  • Vertical visibility at 900' AGL
  • Snow
Temperatures Readings
Current -4°C / 25°F
Dewpoint -5°C / 23°F
Humidity 93%
Altimeter 30.32" Hg
Pressure 1027 hPa
Elevation 2
METAR ENNM 230750Z 08015KT 1000 SHSN VV009 M04/M05 Q1027
Observed Flight Rules
Feb-23 @ 07:50 UTC
(39 minutes ago)
LIFR
Wind Visibility
80° at 15 knots 998 meters
Clouds
  • Vertical visibility at 900' AGL
Conditions
  • Snow
Temperature Dewpoint
-4°C / 25°F -5°C / 23°F
Humidity Altimeter Pressure
93% 30.32" Hg 1027 hPa